Time;durP1;ratioP1;P1;durP2;ratioP2;P2;SDS_P1;SDS_P2;PMS_P1;PMS_P2;Temp;Humidity;BMP_temperature;BMP_pressure;BME280_temperature;BME280_humidity;BME280_pressure;Samples;Min_cycle;Max_cycle;Signal;HPM_P1;HPM_P2
2023/06/04 00:03:22;;;;;;;5.30;2.17;;;;;;;;;;10422284;28;20060;-87
2023/06/04 00:08:23;;;;;;;3.67;2.27;;;;;;;;;;10441685;28;20036;-85
2023/06/04 00:13:24;;;;;;;3.23;2.03;;;;;;;;;;10436155;28;20033;-85
2023/06/04 00:18:25;;;;;;;3.17;2.10;;;;;;;;;;10412008;28;20427;-85
2023/06/04 00:23:26;;;;;;;4.70;1.77;;;;;;;;;;10446934;28;20021;-84
2023/06/04 00:28:27;;;;;;;3.30;1.80;;;;;;;;;;10419544;28;20025;-86
2023/06/04 00:33:28;;;;;;;4.73;2.13;;;;;;;;;;10413589;28;20025;-85
2023/06/04 00:38:29;;;;;;;3.20;2.00;;;;;;;;;;10419319;28;20034;-86
2023/06/04 00:43:32;;;;;;;4.77;2.63;;;;;;;;;;10414519;28;20029;-86
2023/06/04 00:48:33;;;;;;;7.93;3.90;;;;;;;;;;10416399;28;20120;-84
2023/06/04 00:53:34;;;;;;;7.00;3.70;;;;;;;;;;10426251;28;20069;-85
2023/06/04 00:58:39;;;;;;;8.17;3.87;;;;;;;;;;10415070;28;20111;-83
2023/06/04 01:03:43;;;;;;;6.97;3.60;;;;;;;;;;10429385;28;20132;-85
2023/06/04 01:08:44;;;;;;;7.27;3.20;;;;;;;;;;10433534;28;20025;-85
2023/06/04 01:13:45;;;;;;;5.77;3.03;;;;;;;;;;10433422;28;20033;-84
2023/06/04 01:18:46;;;;;;;5.63;2.77;;;;;;;;;;10421428;28;20044;-83
2023/06/04 01:24:00;;;;;;;5.13;2.40;;;;;;;;;;10425311;28;20040;-84
2023/06/04 01:29:01;;;;;;;4.23;2.27;;;;;;;;;;10440068;28;20082;-83
2023/06/04 01:34:02;;;;;;;6.23;2.40;;;;;;;;;;10421454;28;20076;-84
2023/06/04 01:39:03;;;;;;;4.53;2.60;;;;;;;;;;10428786;28;20124;-85
2023/06/04 01:44:04;;;;;;;5.10;2.50;;;;;;;;;;10430491;28;20033;-84
2023/06/04 01:49:06;;;;;;;3.90;1.87;;;;;;;;;;10430887;28;20021;-85
2023/06/04 01:54:07;;;;;;;5.17;2.23;;;;;;;;;;10414368;28;20490;-86
2023/06/04 01:59:11;;;;;;;6.17;2.80;;;;;;;;;;10439238;28;20078;-84
2023/06/04 02:04:12;;;;;;;4.33;2.10;;;;;;;;;;10434474;28;20059;-84
2023/06/04 02:09:13;;;;;;;6.27;2.30;;;;;;;;;;10418439;28;20612;-84
2023/06/04 02:14:14;;;;;;;4.67;1.90;;;;;;;;;;10449368;28;20039;-83
2023/06/04 02:19:18;;;;;;;7.97;2.40;;;;;;;;;;10436581;28;20029;-84
2023/06/04 02:24:19;;;;;;;3.83;1.90;;;;;;;;;;10430344;28;20049;-84
2023/06/04 02:29:20;;;;;;;4.37;2.27;;;;;;;;;;10436947;28;20052;-84
2023/06/04 02:34:21;;;;;;;5.23;1.87;;;;;;;;;;10408084;28;20056;-84
2023/06/04 02:39:22;;;;;;;8.13;2.07;;;;;;;;;;10437150;28;20753;-85
2023/06/04 02:44:23;;;;;;;4.87;1.80;;;;;;;;;;10444388;28;20183;-85
2023/06/04 02:49:24;;;;;;;3.33;1.40;;;;;;;;;;10439519;28;20551;-85
2023/06/04 02:54:25;;;;;;;4.63;2.23;;;;;;;;;;10427680;28;20046;-85
2023/06/04 02:59:27;;;;;;;3.53;2.10;;;;;;;;;;10428740;28;20104;-85
2023/06/04 03:04:33;;;;;;;3.47;1.90;;;;;;;;;;10419334;28;20037;-84
2023/06/04 03:09:34;;;;;;;4.07;1.67;;;;;;;;;;10440187;28;20031;-85
2023/06/04 03:14:36;;;;;;;4.53;1.70;;;;;;;;;;10415212;28;20045;-85
2023/06/04 03:19:38;;;;;;;7.40;2.07;;;;;;;;;;10417611;28;20077;-85
2023/06/04 03:24:40;;;;;;;3.23;1.80;;;;;;;;;;10435301;28;20030;-85
2023/06/04 03:29:41;;;;;;;3.23;1.67;;;;;;;;;;10422975;28;20036;-85
2023/06/04 03:34:43;;;;;;;5.43;2.00;;;;;;;;;;10424218;28;20149;-85
2023/06/04 03:39:44;;;;;;;4.97;1.90;;;;;;;;;;10434610;28;20053;-85
2023/06/04 03:44:46;;;;;;;5.23;2.63;;;;;;;;;;10448774;28;20449;-84
2023/06/04 03:49:47;;;;;;;5.60;2.10;;;;;;;;;;10427291;28;20414;-85
2023/06/04 03:54:48;;;;;;;4.37;2.00;;;;;;;;;;10431037;28;20045;-85
2023/06/04 03:59:50;;;;;;;5.30;2.20;;;;;;;;;;10436669;28;20029;-85
2023/06/04 04:04:54;;;;;;;5.50;2.00;;;;;;;;;;10442239;28;20044;-85
2023/06/04 04:09:55;;;;;;;4.77;2.50;;;;;;;;;;10442051;28;20079;-87
2023/06/04 04:14:56;;;;;;;5.47;2.23;;;;;;;;;;10447148;28;20037;-85
2023/06/04 04:19:57;;;;;;;6.20;2.37;;;;;;;;;;10433127;28;20032;-85
2023/06/04 04:24:58;;;;;;;4.17;2.03;;;;;;;;;;10434354;28;20042;-86
2023/06/04 04:30:00;;;;;;;3.27;2.03;;;;;;;;;;10441031;28;20029;-86
2023/06/04 04:35:01;;;;;;;4.87;2.20;;;;;;;;;;10430555;28;20068;-84
2023/06/04 04:40:03;;;;;;;6.10;2.30;;;;;;;;;;10430536;28;20119;-84
2023/06/04 04:45:04;;;;;;;3.60;2.10;;;;;;;;;;10426711;28;20022;-86
2023/06/04 04:50:05;;;;;;;3.42;1.80;;;;;;;;;;10438835;28;20021;-85
2023/06/04 04:55:07;;;;;;;4.32;2.65;;;;;;;;;;10433307;28;20054;-87
2023/06/04 05:00:09;;;;;;;5.75;2.38;;;;;;;;;;10424108;28;20041;-87
2023/06/04 05:05:10;;;;;;;7.53;2.47;;;;;;;;;;10388023;28;20029;-84
2023/06/04 05:10:12;;;;;;;3.97;1.83;;;;;;;;;;10397363;28;20119;-85
2023/06/04 05:15:14;;;;;;;8.00;2.42;;;;;;;;;;10393131;28;20125;-84
2023/06/04 05:20:15;;;;;;;3.30;1.67;;;;;;;;;;10389810;28;20472;-86
2023/06/04 05:25:17;;;;;;;2.80;1.90;;;;;;;;;;10412249;28;20100;-84
2023/06/04 05:30:18;;;;;;;8.25;2.72;;;;;;;;;;10423867;28;20036;-84
2023/06/04 05:35:20;;;;;;;5.40;1.95;;;;;;;;;;10435446;28;20102;-83
2023/06/04 05:40:21;;;;;;;6.13;2.40;;;;;;;;;;10417986;28;20029;-82
2023/06/04 05:45:23;;;;;;;4.95;2.40;;;;;;;;;;10422458;28;20692;-82
2023/06/04 05:50:24;;;;;;;8.13;3.55;;;;;;;;;;10432022;28;20036;-84
2023/06/04 05:55:25;;;;;;;10.90;4.60;;;;;;;;;;10436278;28;20061;-83
2023/06/04 06:00:26;;;;;;;7.82;3.40;;;;;;;;;;10424026;28;20121;-85
2023/06/04 06:05:27;;;;;;;8.13;3.78;;;;;;;;;;10430702;28;20021;-83
2023/06/04 06:10:29;;;;;;;36.88;17.05;;;;;;;;;;10428605;28;20033;-84
2023/06/04 06:15:30;;;;;;;8.13;4.32;;;;;;;;;;10440420;28;20045;-83
2023/06/04 06:20:32;;;;;;;4.78;2.40;;;;;;;;;;10408264;28;20037;-85
2023/06/04 06:25:33;;;;;;;10.27;3.25;;;;;;;;;;10443274;28;20044;-81
2023/06/04 06:30:34;;;;;;;6.53;2.70;;;;;;;;;;10410704;28;20022;-83
2023/06/04 06:35:35;;;;;;;7.40;3.50;;;;;;;;;;10409973;28;20446;-81
2023/06/04 06:40:36;;;;;;;7.88;3.85;;;;;;;;;;10410124;28;20515;-85
2023/06/04 06:45:37;;;;;;;12.38;4.65;;;;;;;;;;10407444;28;20362;-84
2023/06/04 06:50:38;;;;;;;11.57;5.45;;;;;;;;;;10404738;28;20044;-84
2023/06/04 06:55:40;;;;;;;8.48;3.88;;;;;;;;;;10402417;28;20056;-83
2023/06/04 07:00:40;;;;;;;8.75;4.45;;;;;;;;;;10419172;28;20476;-83
2023/06/04 07:05:41;;;;;;;11.82;2.92;;;;;;;;;;10413534;28;20039;-83
2023/06/04 07:10:42;;;;;;;6.20;3.30;;;;;;;;;;10425687;28;20083;-85
2023/06/04 07:15:43;;;;;;;8.00;3.13;;;;;;;;;;10387929;28;20042;-84
2023/06/04 07:20:44;;;;;;;9.60;3.03;;;;;;;;;;10402357;28;20497;-84
2023/06/04 07:25:46;;;;;;;6.63;3.10;;;;;;;;;;10448042;28;20025;-84
2023/06/04 07:30:47;;;;;;;5.50;2.55;;;;;;;;;;10398522;28;20452;-83
2023/06/04 07:35:48;;;;;;;6.00;2.00;;;;;;;;;;10421569;28;20060;-84
2023/06/04 07:40:49;;;;;;;8.30;2.28;;;;;;;;;;10405690;28;20084;-85
2023/06/04 07:45:50;;;;;;;5.57;2.30;;;;;;;;;;10419960;28;20075;-84
2023/06/04 07:50:51;;;;;;;6.03;2.33;;;;;;;;;;10429434;28;20034;-83
2023/06/04 07:55:53;;;;;;;2.92;1.67;;;;;;;;;;10433664;28;20059;-83
2023/06/04 08:00:54;;;;;;;7.75;2.38;;;;;;;;;;10423007;28;20099;-84
2023/06/04 08:05:55;;;;;;;5.72;2.95;;;;;;;;;;10439717;28;20053;-85
2023/06/04 08:10:56;;;;;;;8.30;2.75;;;;;;;;;;10402026;28;20029;-84
2023/06/04 08:15:57;;;;;;;9.82;3.58;;;;;;;;;;10443470;28;20311;-83
2023/06/04 08:20:58;;;;;;;5.15;2.72;;;;;;;;;;10406392;28;20029;-85
2023/06/04 08:25:59;;;;;;;11.65;3.33;;;;;;;;;;10435476;28;20308;-86
2023/06/04 08:31:00;;;;;;;11.73;4.03;;;;;;;;;;10400014;28;20095;-85
2023/06/04 08:36:01;;;;;;;7.55;3.08;;;;;;;;;;10429936;28;20029;-84
2023/06/04 08:41:07;;;;;;;5.55;2.42;;;;;;;;;;10415052;28;20032;-86
2023/06/04 08:46:08;;;;;;;5.85;2.75;;;;;;;;;;10437117;28;20033;-84
2023/06/04 08:51:11;;;;;;;4.70;2.83;;;;;;;;;;10445378;28;20536;-84
2023/06/04 08:56:12;;;;;;;6.63;2.80;;;;;;;;;;10444658;28;20135;-86
2023/06/04 09:01:14;;;;;;;6.13;2.50;;;;;;;;;;10444602;28;20068;-85
2023/06/04 09:06:15;;;;;;;7.05;2.72;;;;;;;;;;10445181;28;20445;-84
2023/06/04 09:11:18;;;;;;;4.05;1.90;;;;;;;;;;10444951;28;20037;-85
2023/06/04 09:16:19;;;;;;;5.47;2.38;;;;;;;;;;10445136;28;20447;-85
2023/06/04 09:21:20;;;;;;;5.88;2.00;;;;;;;;;;10439194;28;20080;-84
2023/06/04 09:26:21;;;;;;;4.47;2.28;;;;;;;;;;10436381;28;20349;-84
2023/06/04 09:31:26;;;;;;;3.50;1.88;;;;;;;;;;10426338;28;20029;-85
2023/06/04 09:36:30;;;;;;;3.60;1.60;;;;;;;;;;10410760;28;20095;-86
2023/06/04 09:41:31;;;;;;;5.47;1.67;;;;;;;;;;10394300;28;20029;-84
2023/06/04 09:46:32;;;;;;;4.03;1.45;;;;;;;;;;10392821;28;20029;-85
2023/06/04 09:51:34;;;;;;;4.55;2.10;;;;;;;;;;10418682;28;20398;-84
2023/06/04 09:56:41;;;;;;;3.83;2.03;;;;;;;;;;10420947;28;20125;-84
2023/06/04 10:01:43;;;;;;;1.88;1.38;;;;;;;;;;10420017;28;20040;-85
2023/06/04 10:06:45;;;;;;;2.10;1.50;;;;;;;;;;10409771;28;20022;-84
2023/06/04 10:11:58;;;;;;;4.47;2.00;;;;;;;;;;10412669;28;20052;-84
2023/06/04 10:17:00;;;;;;;5.50;1.80;;;;;;;;;;10406657;28;20370;-84
2023/06/04 10:22:01;;;;;;;4.20;1.50;;;;;;;;;;10392829;28;20128;-85
2023/06/04 10:27:10;;;;;;;5.60;2.30;;;;;;;;;;10425523;28;20049;-86
2023/06/04 10:32:11;;;;;;;3.65;1.90;;;;;;;;;;10409919;28;20037;-85
2023/06/04 10:37:22;;;;;;;17.95;2.10;;;;;;;;;;10394081;28;20054;-84
2023/06/04 10:42:23;;;;;;;2.63;1.67;;;;;;;;;;10405843;28;20489;-85
2023/06/04 10:47:25;;;;;;;4.78;2.00;;;;;;;;;;10401683;28;20037;-85
2023/06/04 10:52:26;;;;;;;5.25;2.10;;;;;;;;;;10407201;28;20099;-84
2023/06/04 10:57:27;;;;;;;4.50;2.00;;;;;;;;;;10436584;28;20095;-86
2023/06/04 11:02:28;;;;;;;4.03;1.88;;;;;;;;;;10437692;28;20021;-84
2023/06/04 11:07:29;;;;;;;3.58;1.80;;;;;;;;;;10420404;28;20480;-87
2023/06/04 11:12:41;;;;;;;3.08;1.88;;;;;;;;;;10430170;28;20040;-86
2023/06/04 11:17:51;;;;;;;3.13;2.00;;;;;;;;;;10432749;28;20064;-86
2023/06/04 11:22:56;;;;;;;3.25;1.70;;;;;;;;;;10437608;28;20041;-84
2023/06/04 11:27:57;;;;;;;3.67;2.03;;;;;;;;;;10418866;28;20319;-89
2023/06/04 11:33:05;;;;;;;6.88;2.60;;;;;;;;;;10398881;28;20088;-87
2023/06/04 11:38:06;;;;;;;7.65;2.50;;;;;;;;;;10397918;28;20052;-88
2023/06/04 11:43:09;;;;;;;4.07;2.00;;;;;;;;;;10397881;28;20521;-87
2023/06/04 11:48:11;;;;;;;2.42;1.73;;;;;;;;;;10433861;28;20033;-87
2023/06/04 11:53:12;;;;;;;4.03;2.15;;;;;;;;;;10424219;28;20102;-88
2023/06/04 11:58:13;;;;;;;4.70;2.10;;;;;;;;;;10433117;28;20049;-88
2023/06/04 12:03:15;;;;;;;3.90;2.30;;;;;;;;;;10420638;28;20029;-88
2023/06/04 12:08:16;;;;;;;3.53;2.42;;;;;;;;;;10437918;28;20135;-88
2023/06/04 12:13:17;;;;;;;4.28;2.05;;;;;;;;;;10447754;28;20064;-89
2023/06/04 12:18:24;;;;;;;4.85;2.10;;;;;;;;;;10446834;28;20069;-87
2023/06/04 12:23:27;;;;;;;5.88;2.45;;;;;;;;;;10445411;28;20040;-88
2023/06/04 12:28:28;;;;;;;4.88;2.20;;;;;;;;;;10416898;28;20021;-88
2023/06/04 12:33:36;;;;;;;5.10;2.17;;;;;;;;;;10434167;28;20021;-88
2023/06/04 12:38:37;;;;;;;4.10;1.98;;;;;;;;;;10412370;28;20033;-87
2023/06/04 12:43:38;;;;;;;5.60;2.22;;;;;;;;;;10417438;28;20497;-87
2023/06/04 12:48:40;;;;;;;3.20;1.98;;;;;;;;;;10440433;28;20392;-87
2023/06/04 12:53:41;;;;;;;4.15;1.70;;;;;;;;;;10428781;28;20515;-86
2023/06/04 12:58:42;;;;;;;4.95;1.92;;;;;;;;;;10438655;28;20132;-87
2023/06/04 13:03:44;;;;;;;4.18;1.88;;;;;;;;;;10436652;28;20022;-87
2023/06/04 13:08:45;;;;;;;8.20;2.28;;;;;;;;;;10432039;28;20036;-88
2023/06/04 13:13:46;;;;;;;3.08;2.03;;;;;;;;;;10440744;28;20453;-87
2023/06/04 13:18:47;;;;;;;3.67;2.10;;;;;;;;;;10441442;28;20135;-87
2023/06/04 13:23:51;;;;;;;3.78;1.85;;;;;;;;;;10445628;28;20021;-87
2023/06/04 13:28:52;;;;;;;5.77;2.30;;;;;;;;;;10431370;28;20033;-87
2023/06/04 13:33:53;;;;;;;6.72;2.38;;;;;;;;;;10444542;28;20055;-86
2023/06/04 13:38:55;;;;;;;3.33;1.80;;;;;;;;;;10444334;28;20033;-86
2023/06/04 13:43:56;;;;;;;3.92;1.77;;;;;;;;;;10444045;28;20029;-87
2023/06/04 13:48:57;;;;;;;4.13;1.80;;;;;;;;;;10430859;28;20033;-88
2023/06/04 13:53:58;;;;;;;2.90;1.83;;;;;;;;;;10444452;28;20049;-87
2023/06/04 13:58:59;;;;;;;9.15;2.05;;;;;;;;;;10451952;28;20047;-87
2023/06/04 14:04:00;;;;;;;4.53;1.80;;;;;;;;;;10452371;28;20033;-87
2023/06/04 14:09:01;;;;;;;3.78;2.17;;;;;;;;;;10452193;28;20121;-87
2023/06/04 14:14:02;;;;;;;5.75;1.90;;;;;;;;;;10445790;28;20030;-87
2023/06/04 14:19:04;;;;;;;6.55;2.05;;;;;;;;;;10428998;28;20041;-85
2023/06/04 14:24:05;;;;;;;3.63;1.90;;;;;;;;;;10450544;28;20083;-86
2023/06/04 14:29:06;;;;;;;3.42;2.15;;;;;;;;;;10451461;28;20624;-87
2023/06/04 14:34:08;;;;;;;2.67;1.83;;;;;;;;;;10451809;28;20041;-87
2023/06/04 14:39:09;;;;;;;4.63;2.20;;;;;;;;;;10436223;28;20050;-87
2023/06/04 14:44:10;;;;;;;3.08;2.00;;;;;;;;;;10450303;28;20033;-86
2023/06/04 14:49:11;;;;;;;4.15;2.25;;;;;;;;;;10451722;28;20045;-87
2023/06/04 14:54:12;;;;;;;7.18;2.65;;;;;;;;;;10449564;28;20516;-86
2023/06/04 14:59:13;;;;;;;3.85;2.42;;;;;;;;;;10450520;28;20048;-87
2023/06/04 15:04:15;;;;;;;5.60;2.22;;;;;;;;;;10448579;28;20032;-87
2023/06/04 15:09:16;;;;;;;3.20;1.95;;;;;;;;;;10448175;28;20112;-87
2023/06/04 15:14:17;;;;;;;3.28;2.08;;;;;;;;;;10449847;28;20612;-86
2023/06/04 15:19:18;;;;;;;2.92;2.05;;;;;;;;;;10448029;28;20101;-87
2023/06/04 15:24:21;;;;;;;5.25;2.20;;;;;;;;;;10449597;28;20151;-88
2023/06/04 15:29:22;;;;;;;5.60;2.17;;;;;;;;;;10447726;28;20032;-87
2023/06/04 15:34:23;;;;;;;5.18;2.40;;;;;;;;;;10447292;28;20491;-88
2023/06/04 15:39:24;;;;;;;5.22;2.55;;;;;;;;;;10449133;28;20057;-87
2023/06/04 15:44:26;;;;;;;2.97;1.98;;;;;;;;;;10434684;28;20059;-88
2023/06/04 15:49:28;;;;;;;3.80;1.90;;;;;;;;;;10447233;28;20067;-87
2023/06/04 15:54:29;;;;;;;2.80;1.63;;;;;;;;;;10446541;28;20071;-86
2023/06/04 15:59:30;;;;;;;3.17;1.90;;;;;;;;;;10445778;28;20518;-87
2023/06/04 16:04:31;;;;;;;5.15;1.85;;;;;;;;;;10447142;28;20035;-87
2023/06/04 16:09:32;;;;;;;3.65;2.05;;;;;;;;;;10446813;28;20029;-87
2023/06/04 16:14:37;;;;;;;2.95;1.75;;;;;;;;;;10448129;28;20060;-88
2023/06/04 16:19:38;;;;;;;2.03;1.40;;;;;;;;;;10445260;28;20037;-88
2023/06/04 16:24:39;;;;;;;3.60;1.95;;;;;;;;;;10445662;28;20025;-87
2023/06/04 16:29:40;;;;;;;2.50;1.50;;;;;;;;;;10445523;28;20027;-89
2023/06/04 16:34:41;;;;;;;2.70;1.63;;;;;;;;;;10444495;28;20071;-88
2023/06/04 16:39:42;;;;;;;2.30;1.30;;;;;;;;;;10446008;28;20516;-86
2023/06/04 16:44:43;;;;;;;3.60;1.80;;;;;;;;;;10444234;28;20017;-85
2023/06/04 16:49:44;;;;;;;3.85;1.60;;;;;;;;;;10446115;28;20013;-86
2023/06/04 16:54:46;;;;;;;2.92;1.60;;;;;;;;;;10445332;28;20083;-85
2023/06/04 16:59:47;;;;;;;3.53;1.70;;;;;;;;;;10438653;28;20064;-87
2023/06/04 17:04:48;;;;;;;3.45;1.67;;;;;;;;;;10432228;28;20116;-86
2023/06/04 17:09:50;;;;;;;2.47;1.67;;;;;;;;;;10445027;28;20385;-86
2023/06/04 17:14:51;;;;;;;4.45;2.17;;;;;;;;;;10431836;28;20039;-87
2023/06/04 17:19:52;;;;;;;3.25;1.98;;;;;;;;;;10445273;28;20059;-89
2023/06/04 17:24:53;;;;;;;5.18;1.88;;;;;;;;;;10445527;28;20029;-86
2023/06/04 17:29:55;;;;;;;3.08;1.70;;;;;;;;;;10442325;28;20033;-86
2023/06/04 17:34:56;;;;;;;5.80;2.00;;;;;;;;;;10442451;28;20032;-87
2023/06/04 17:39:57;;;;;;;3.97;1.40;;;;;;;;;;10431952;28;20041;-87
2023/06/04 17:45:00;;;;;;;6.90;2.13;;;;;;;;;;10441165;28;20035;-87
2023/06/04 17:50:06;;;;;;;4.30;1.90;;;;;;;;;;10442992;28;20025;-86
2023/06/04 17:55:08;;;;;;;3.20;1.60;;;;;;;;;;10428806;28;20104;-86
2023/06/04 18:00:09;;;;;;;2.58;1.60;;;;;;;;;;10406546;28;20040;-86
2023/06/04 18:05:10;;;;;;;2.60;1.60;;;;;;;;;;10424623;28;20052;-86
2023/06/04 18:10:11;;;;;;;4.38;1.55;;;;;;;;;;10434168;28;20128;-86
2023/06/04 18:15:15;;;;;;;2.38;1.85;;;;;;;;;;10420268;28;20146;-85
2023/06/04 18:20:16;;;;;;;6.97;2.10;;;;;;;;;;10417196;28;20033;-85
2023/06/04 18:25:17;;;;;;;3.15;2.10;;;;;;;;;;10436706;28;20757;-87
2023/06/04 18:30:18;;;;;;;3.50;2.00;;;;;;;;;;10405087;28;20033;-85
2023/06/04 18:35:19;;;;;;;3.90;1.88;;;;;;;;;;10413808;28;20095;-87
2023/06/04 18:40:21;;;;;;;4.85;1.45;;;;;;;;;;10393229;28;20029;-89
2023/06/04 18:45:22;;;;;;;3.78;1.90;;;;;;;;;;10413153;28;20037;-84
2023/06/04 18:50:23;;;;;;;3.47;1.90;;;;;;;;;;10420784;28;20026;-85
2023/06/04 18:55:24;;;;;;;4.05;2.20;;;;;;;;;;10415058;28;20045;-87
2023/06/04 19:00:25;;;;;;;4.00;1.90;;;;;;;;;;10407001;28;20056;-86
2023/06/04 19:05:26;;;;;;;4.07;1.67;;;;;;;;;;10395835;28;20029;-84
2023/06/04 19:10:27;;;;;;;4.60;1.90;;;;;;;;;;10403600;28;20600;-86
2023/06/04 19:15:28;;;;;;;3.58;2.53;;;;;;;;;;10404426;28;20139;-85
2023/06/04 19:20:29;;;;;;;4.55;2.58;;;;;;;;;;10399148;28;20770;-85
2023/06/04 19:25:30;;;;;;;5.22;2.75;;;;;;;;;;10418612;28;20048;-86
2023/06/04 19:30:31;;;;;;;6.72;2.78;;;;;;;;;;10411513;28;20033;-85
2023/06/04 19:35:32;;;;;;;5.93;3.00;;;;;;;;;;10437371;28;20029;-84
2023/06/04 19:40:33;;;;;;;6.93;3.17;;;;;;;;;;10400517;28;20415;-85
2023/06/04 19:45:34;;;;;;;7.35;3.15;;;;;;;;;;10405800;28;20427;-84
2023/06/04 19:50:35;;;;;;;6.68;3.08;;;;;;;;;;10416487;28;20026;-84
2023/06/04 19:55:36;;;;;;;6.20;2.95;;;;;;;;;;10399864;28;20050;-84
2023/06/04 20:00:37;;;;;;;6.45;2.63;;;;;;;;;;10406007;28;20047;-84
2023/06/04 20:05:38;;;;;;;5.32;3.00;;;;;;;;;;10405438;28;20064;-86
2023/06/04 20:10:39;;;;;;;5.88;2.42;;;;;;;;;;10392726;28;20359;-83
2023/06/04 20:15:40;;;;;;;5.40;2.70;;;;;;;;;;10406135;28;20036;-83
2023/06/04 20:20:41;;;;;;;6.40;3.30;;;;;;;;;;10410673;28;20034;-85
2023/06/04 20:25:43;;;;;;;6.30;2.92;;;;;;;;;;10423639;28;20044;-85
2023/06/04 20:30:44;;;;;;;8.73;2.97;;;;;;;;;;10415579;28;20112;-84
2023/06/04 20:35:45;;;;;;;8.95;2.95;;;;;;;;;;10426519;28;20431;-83
2023/06/04 20:40:46;;;;;;;3.80;2.30;;;;;;;;;;10421866;28;20046;-84
2023/06/04 20:45:47;;;;;;;6.50;2.63;;;;;;;;;;10412516;28;20040;-83
2023/06/04 20:50:48;;;;;;;10.63;4.10;;;;;;;;;;10424363;28;20479;-85
2023/06/04 20:55:49;;;;;;;4.15;2.45;;;;;;;;;;10423918;28;20079;-84
2023/06/04 21:00:50;;;;;;;5.28;3.00;;;;;;;;;;10402463;28;20120;-87
2023/06/04 21:05:51;;;;;;;7.35;3.53;;;;;;;;;;10414664;28;20025;-84
2023/06/04 21:10:52;;;;;;;6.68;3.33;;;;;;;;;;10395462;28;20511;-86
2023/06/04 21:15:56;;;;;;;7.07;2.90;;;;;;;;;;10400861;28;20092;-83
2023/06/04 21:20:57;;;;;;;5.47;2.67;;;;;;;;;;10422661;28;20059;-84
2023/06/04 21:25:58;;;;;;;6.13;2.72;;;;;;;;;;10402495;28;20045;-84
2023/06/04 21:30:59;;;;;;;3.17;2.25;;;;;;;;;;10418507;28;20103;-83
2023/06/04 21:36:00;;;;;;;6.90;2.50;;;;;;;;;;10422122;28;20041;-83
2023/06/04 21:41:01;;;;;;;6.70;2.80;;;;;;;;;;10409670;28;20086;-83
2023/06/04 21:46:02;;;;;;;4.78;2.67;;;;;;;;;;10398683;28;20559;-83
2023/06/04 21:51:03;;;;;;;4.82;2.42;;;;;;;;;;10407990;28;20064;-83
2023/06/04 21:56:04;;;;;;;5.50;2.33;;;;;;;;;;10404017;28;20059;-83
2023/06/04 22:01:05;;;;;;;4.75;2.35;;;;;;;;;;10415814;28;20029;-83
2023/06/04 22:06:06;;;;;;;5.20;2.10;;;;;;;;;;10418847;28;20034;-85
2023/06/04 22:11:07;;;;;;;6.85;2.78;;;;;;;;;;10421455;28;20033;-83
2023/06/04 22:16:08;;;;;;;4.45;2.28;;;;;;;;;;10405982;28;20041;-83
2023/06/04 22:21:09;;;;;;;4.05;2.15;;;;;;;;;;10421850;28;20568;-83
2023/06/04 22:26:10;;;;;;;5.90;2.20;;;;;;;;;;10406750;28;20033;-83
2023/06/04 22:31:11;;;;;;;6.00;2.60;;;;;;;;;;10429667;28;20424;-83
2023/06/04 22:36:12;;;;;;;5.32;2.60;;;;;;;;;;10424603;28;20037;-83
2023/06/04 22:41:13;;;;;;;4.85;2.38;;;;;;;;;;10416912;28;20481;-83
2023/06/04 22:46:14;;;;;;;4.15;2.20;;;;;;;;;;10398396;28;20046;-83
2023/06/04 22:51:16;;;;;;;4.43;2.13;;;;;;;;;;10425034;28;20504;-83
2023/06/04 22:56:17;;;;;;;7.93;2.75;;;;;;;;;;10407565;28;20056;-82
2023/06/04 23:01:18;;;;;;;7.05;3.35;;;;;;;;;;10414455;28;20492;-87
2023/06/04 23:06:20;;;;;;;6.32;2.90;;;;;;;;;;10412381;28;20033;-83
2023/06/04 23:11:21;;;;;;;6.60;2.88;;;;;;;;;;10425273;28;20030;-82
2023/06/04 23:16:22;;;;;;;5.60;2.63;;;;;;;;;;10410554;28;20029;-82
2023/06/04 23:21:23;;;;;;;7.63;3.00;;;;;;;;;;10441155;28;20040;-84
2023/06/04 23:26:25;;;;;;;3.92;2.50;;;;;;;;;;10419245;28;20029;-83
2023/06/04 23:31:26;;;;;;;4.75;2.55;;;;;;;;;;10425615;28;20048;-82
2023/06/04 23:36:27;;;;;;;8.05;2.42;;;;;;;;;;10421520;28;20425;-84
2023/06/04 23:41:28;;;;;;;6.72;2.55;;;;;;;;;;10418221;28;20105;-82
2023/06/04 23:46:29;;;;;;;6.07;2.20;;;;;;;;;;10412085;28;20029;-83
2023/06/04 23:51:30;;;;;;;4.50;2.45;;;;;;;;;;10416327;28;20087;-85
2023/06/04 23:56:31;;;;;;;11.30;2.30;;;;;;;;;;10430328;28;20057;-82
